Time;durP1;ratioP1;P1;durP2;ratioP2;P2;SDS_P1;SDS_P2;PMS_P1;PMS_P2;Temp;Humidity;BMP_temperature;BMP_pressure;BME280_temperature;BME280_humidity;BME280_pressure;Samples;Min_cycle;Max_cycle;Signal;HPM_P1;HPM_P2
2020/12/16 00:01:46;;;;;;;21.75;15.40;;;;;;;;;;5088045;28;20576;-77
2020/12/16 00:04:14;;;;;;;25.08;16.35;;;;;;;;;;5088288;28;20214;-76
2020/12/16 00:06:40;;;;;;;22.80;15.50;;;;;;;;;;5089323;28;20666;-76
2020/12/16 00:09:07;;;;;;;24.55;15.43;;;;;;;;;;5089563;28;20201;-76
2020/12/16 00:11:35;;;;;;;22.30;15.13;;;;;;;;;;5087445;28;20284;-77
2020/12/16 00:14:02;;;;;;;20.00;14.32;;;;;;;;;;5071687;28;20208;-77
2020/12/16 00:16:29;;;;;;;21.55;13.65;;;;;;;;;;5090253;28;20195;-76
2020/12/16 00:18:56;;;;;;;23.40;14.30;;;;;;;;;;5090462;28;20217;-77
2020/12/16 00:21:23;;;;;;;23.10;14.35;;;;;;;;;;5090878;28;20254;-76
2020/12/16 00:23:50;;;;;;;17.08;12.70;;;;;;;;;;5092265;28;20292;-76
2020/12/16 00:26:17;;;;;;;19.55;13.23;;;;;;;;;;5092665;28;20189;-76
2020/12/16 00:28:45;;;;;;;17.17;13.25;;;;;;;;;;5093005;28;20281;-75
2020/12/16 00:31:12;;;;;;;18.20;13.68;;;;;;;;;;5087790;28;20224;-76
2020/12/16 00:33:39;;;;;;;17.90;12.70;;;;;;;;;;5084919;28;20208;-76
2020/12/16 00:36:06;;;;;;;16.00;12.43;;;;;;;;;;5089149;28;20289;-77
2020/12/16 00:38:33;;;;;;;16.30;10.73;;;;;;;;;;5090098;28;20212;-76
2020/12/16 00:41:00;;;;;;;17.38;13.15;;;;;;;;;;5090492;28;20256;-76
2020/12/16 00:43:27;;;;;;;15.07;11.15;;;;;;;;;;5091166;28;20221;-76
2020/12/16 00:45:54;;;;;;;12.07;10.43;;;;;;;;;;5092155;28;20226;-76
2020/12/16 00:48:21;;;;;;;16.00;11.75;;;;;;;;;;5092476;28;20282;-76
2020/12/16 00:50:48;;;;;;;18.13;12.55;;;;;;;;;;5092092;28;20545;-77
2020/12/16 00:53:14;;;;;;;16.08;11.00;;;;;;;;;;5087954;28;20216;-76
2020/12/16 00:55:42;;;;;;;13.10;10.30;;;;;;;;;;5066614;28;20562;-76
2020/12/16 00:58:09;;;;;;;15.98;11.00;;;;;;;;;;5069008;28;20784;-76
2020/12/16 01:00:36;;;;;;;14.73;10.65;;;;;;;;;;5068526;28;20214;-76
2020/12/16 01:03:03;;;;;;;14.13;11.88;;;;;;;;;;5068588;28;20275;-76
2020/12/16 01:05:30;;;;;;;16.85;11.10;;;;;;;;;;5069028;28;20195;-76
2020/12/16 01:07:57;;;;;;;16.65;11.52;;;;;;;;;;5066995;28;20643;-75
2020/12/16 01:10:24;;;;;;;14.05;10.30;;;;;;;;;;5065847;28;20196;-75
2020/12/16 01:12:51;;;;;;;13.05;10.60;;;;;;;;;;5068661;28;20314;-76
2020/12/16 01:15:19;;;;;;;12.75;10.07;;;;;;;;;;5068812;28;20305;-76
2020/12/16 01:17:46;;;;;;;12.75;10.00;;;;;;;;;;5068397;28;20664;-76
2020/12/16 01:20:13;;;;;;;12.88;10.23;;;;;;;;;;5070194;28;20222;-76
2020/12/16 01:22:40;;;;;;;12.48;10.05;;;;;;;;;;5071237;28;20196;-76
2020/12/16 01:25:08;;;;;;;13.15;10.88;;;;;;;;;;5053478;28;20306;-75
2020/12/16 01:27:34;;;;;;;13.95;9.90;;;;;;;;;;5070884;28;20191;-75
2020/12/16 01:30:02;;;;;;;13.32;10.18;;;;;;;;;;5068232;28;20196;-75
2020/12/16 01:32:32;;;;;;;13.00;9.65;;;;;;;;;;5064712;28;20263;-76
2020/12/16 01:34:59;;;;;;;16.55;10.00;;;;;;;;;;5067494;28;20598;-76
2020/12/16 01:37:26;;;;;;;14.35;10.20;;;;;;;;;;5069154;28;20821;-76
2020/12/16 01:39:53;;;;;;;14.43;9.75;;;;;;;;;;5068832;28;20217;-77
2020/12/16 01:42:20;;;;;;;12.70;10.43;;;;;;;;;;5069818;28;20251;-76
2020/12/16 01:44:47;;;;;;;12.40;9.45;;;;;;;;;;5070676;28;20680;-76
2020/12/16 01:47:14;;;;;;;13.25;10.15;;;;;;;;;;5071515;28;20715;-76
2020/12/16 01:49:41;;;;;;;11.43;9.45;;;;;;;;;;5071280;28;20196;-76
2020/12/16 01:52:08;;;;;;;12.52;9.65;;;;;;;;;;5069100;28;20201;-76
2020/12/16 01:54:36;;;;;;;13.95;11.00;;;;;;;;;;5065525;28;20222;-76
2020/12/16 01:57:04;;;;;;;17.70;10.20;;;;;;;;;;5064564;28;20207;-77
2020/12/16 01:59:34;;;;;;;13.93;10.32;;;;;;;;;;5068231;28;20225;-76
2020/12/16 02:02:02;;;;;;;15.05;9.93;;;;;;;;;;5067019;28;20638;-76
2020/12/16 02:04:34;;;;;;;15.38;10.05;;;;;;;;;;5070400;28;20219;-77
2020/12/16 02:07:02;;;;;;;12.70;10.05;;;;;;;;;;5074321;28;20190;-76
2020/12/16 02:09:29;;;;;;;19.85;10.73;;;;;;;;;;5054320;28;20531;-77
2020/12/16 02:11:55;;;;;;;13.70;10.55;;;;;;;;;;5074547;28;20194;-76
2020/12/16 02:14:22;;;;;;;13.48;9.93;;;;;;;;;;5073961;28;20307;-76
2020/12/16 02:16:49;;;;;;;17.40;9.90;;;;;;;;;;5068977;28;20234;-76
2020/12/16 02:19:20;;;;;;;18.88;10.18;;;;;;;;;;5071466;28;20481;-76
2020/12/16 02:21:47;;;;;;;14.50;9.70;;;;;;;;;;5054617;28;20228;-76
2020/12/16 02:24:15;;;;;;;15.00;8.90;;;;;;;;;;5072231;28;20748;-77
2020/12/16 02:26:43;;;;;;;13.68;9.90;;;;;;;;;;5072544;28;20232;-76
2020/12/16 02:29:10;;;;;;;16.40;9.20;;;;;;;;;;5074252;28;20200;-77
2020/12/16 02:31:38;;;;;;;12.80;9.82;;;;;;;;;;5053588;28;20275;-77
2020/12/16 02:34:05;;;;;;;14.45;9.23;;;;;;;;;;5051267;28;20217;-76
2020/12/16 02:36:32;;;;;;;12.18;9.52;;;;;;;;;;5072200;28;20198;-76
2020/12/16 02:38:59;;;;;;;11.98;9.10;;;;;;;;;;5070503;28;20193;-77
2020/12/16 02:41:27;;;;;;;12.77;9.63;;;;;;;;;;5053886;28;20196;-76
2020/12/16 02:43:55;;;;;;;15.30;9.88;;;;;;;;;;5072716;28;20388;-76
2020/12/16 02:46:21;;;;;;;14.00;9.10;;;;;;;;;;5074103;28;20190;-76
2020/12/16 02:48:48;;;;;;;14.82;9.93;;;;;;;;;;5074603;28;20202;-77
2020/12/16 02:51:15;;;;;;;16.70;10.10;;;;;;;;;;5073734;28;20186;-77
2020/12/16 02:53:42;;;;;;;19.13;11.48;;;;;;;;;;5073026;28;20253;-76
2020/12/16 02:56:08;;;;;;;12.45;9.52;;;;;;;;;;5068675;28;20633;-76
2020/12/16 02:58:35;;;;;;;13.73;9.85;;;;;;;;;;5069876;28;20192;-76
2020/12/16 03:01:03;;;;;;;14.60;10.00;;;;;;;;;;5071552;28;20219;-77
2020/12/16 03:03:30;;;;;;;14.35;9.63;;;;;;;;;;5071438;28;20215;-77
2020/12/16 03:05:56;;;;;;;13.68;9.77;;;;;;;;;;5072076;28;20198;-76
2020/12/16 03:08:23;;;;;;;14.98;9.30;;;;;;;;;;5071823;28;20190;-77
2020/12/16 03:10:50;;;;;;;13.73;10.15;;;;;;;;;;5073795;28;20191;-76
2020/12/16 03:13:17;;;;;;;18.80;10.90;;;;;;;;;;5073750;28;20226;-77
2020/12/16 03:15:43;;;;;;;14.82;10.75;;;;;;;;;;5072753;28;20187;-76
2020/12/16 03:18:11;;;;;;;14.30;10.18;;;;;;;;;;5068276;28;20194;-76
2020/12/16 03:20:38;;;;;;;14.52;10.32;;;;;;;;;;5068757;28;20215;-76
2020/12/16 03:23:05;;;;;;;15.88;10.07;;;;;;;;;;5071407;28;20350;-76
2020/12/16 03:25:31;;;;;;;14.85;10.50;;;;;;;;;;5071369;28;20703;-76
2020/12/16 03:27:58;;;;;;;18.67;10.80;;;;;;;;;;5071785;28;20222;-77
2020/12/16 03:30:25;;;;;;;13.68;10.55;;;;;;;;;;5072580;28;20220;-76
2020/12/16 03:32:52;;;;;;;17.42;11.75;;;;;;;;;;5072988;28;20616;-76
2020/12/16 03:35:20;;;;;;;14.55;10.38;;;;;;;;;;5073408;28;20609;-77
2020/12/16 03:37:46;;;;;;;21.98;12.25;;;;;;;;;;5073257;28;20249;-76
2020/12/16 03:40:13;;;;;;;16.48;10.10;;;;;;;;;;5069045;28;20321;-76
2020/12/16 03:42:41;;;;;;;19.13;12.30;;;;;;;;;;5068638;28;20207;-76
2020/12/16 03:45:08;;;;;;;16.92;10.90;;;;;;;;;;5070627;28;20198;-76
2020/12/16 03:47:35;;;;;;;21.27;13.02;;;;;;;;;;5071106;28;20206;-76
2020/12/16 03:50:01;;;;;;;15.93;10.95;;;;;;;;;;5070723;28;20659;-76
2020/12/16 03:52:29;;;;;;;18.38;11.80;;;;;;;;;;5071709;28;20548;-76
2020/12/16 03:54:56;;;;;;;16.40;11.00;;;;;;;;;;5086621;28;20219;-77
2020/12/16 03:57:23;;;;;;;17.02;11.60;;;;;;;;;;5086120;28;20267;-77
2020/12/16 03:59:50;;;;;;;17.25;10.90;;;;;;;;;;5086478;28;20578;-76
2020/12/16 04:02:16;;;;;;;17.45;11.85;;;;;;;;;;5086836;28;20198;-76
2020/12/16 04:04:43;;;;;;;17.90;12.13;;;;;;;;;;5090394;28;20213;-76
2020/12/16 04:07:10;;;;;;;16.52;10.90;;;;;;;;;;5089937;28;20213;-76
2020/12/16 04:09:37;;;;;;;19.40;11.65;;;;;;;;;;5090896;28;20198;-77
2020/12/16 04:12:04;;;;;;;16.13;11.27;;;;;;;;;;5091630;28;20200;-77
2020/12/16 04:14:31;;;;;;;17.15;11.70;;;;;;;;;;5092467;28;20282;-76
2020/12/16 04:16:58;;;;;;;18.65;11.60;;;;;;;;;;5092646;28;20204;-77
2020/12/16 04:19:25;;;;;;;16.05;10.75;;;;;;;;;;5093175;28;20277;-77
2020/12/16 04:21:55;;;;;;;15.95;11.35;;;;;;;;;;5088212;28;20599;-76
2020/12/16 04:24:22;;;;;;;15.10;11.43;;;;;;;;;;5087182;28;20206;-77
2020/12/16 04:26:49;;;;;;;18.27;11.32;;;;;;;;;;5089041;28;20195;-76
2020/12/16 04:29:16;;;;;;;17.50;11.02;;;;;;;;;;5088856;28;20224;-77
2020/12/16 04:31:43;;;;;;;16.42;11.05;;;;;;;;;;5090835;28;20196;-76
2020/12/16 04:34:10;;;;;;;16.08;10.77;;;;;;;;;;5091369;28;20762;-76
2020/12/16 04:36:37;;;;;;;16.88;11.23;;;;;;;;;;5092250;28;20251;-77
2020/12/16 04:39:04;;;;;;;18.27;11.60;;;;;;;;;;5091958;28;20200;-77
2020/12/16 04:41:31;;;;;;;17.27;11.23;;;;;;;;;;5092089;28;20717;-77
2020/12/16 04:43:59;;;;;;;23.80;11.95;;;;;;;;;;5089358;28;20227;-77
2020/12/16 04:46:29;;;;;;;17.70;11.68;;;;;;;;;;5086409;28;20200;-77
2020/12/16 04:48:56;;;;;;;21.60;13.65;;;;;;;;;;5090039;28;20229;-76
2020/12/16 04:51:25;;;;;;;18.25;12.23;;;;;;;;;;5089768;28;20204;-77
2020/12/16 04:53:54;;;;;;;18.65;11.35;;;;;;;;;;5089791;28;20218;-77
2020/12/16 04:56:23;;;;;;;15.55;11.50;;;;;;;;;;5083301;28;20201;-77
2020/12/16 04:58:50;;;;;;;20.13;13.00;;;;;;;;;;5071931;28;20550;-77
2020/12/16 05:01:17;;;;;;;17.42;12.30;;;;;;;;;;5071013;28;20706;-77
2020/12/16 05:03:44;;;;;;;17.50;12.50;;;;;;;;;;5071906;28;20363;-77
2020/12/16 05:06:11;;;;;;;22.15;11.65;;;;;;;;;;5069561;28;20194;-77
2020/12/16 05:08:38;;;;;;;15.98;10.93;;;;;;;;;;5065949;28;20196;-77
2020/12/16 05:11:05;;;;;;;15.63;11.02;;;;;;;;;;5077399;28;20236;-76
2020/12/16 05:13:32;;;;;;;18.65;12.15;;;;;;;;;;5089757;28;20210;-77
2020/12/16 05:16:02;;;;;;;18.58;11.85;;;;;;;;;;5089371;28;20714;-77
2020/12/16 05:18:29;;;;;;;16.42;11.02;;;;;;;;;;5087668;28;20229;-77
2020/12/16 05:20:57;;;;;;;17.75;11.60;;;;;;;;;;5071172;28;20225;-77
2020/12/16 05:23:25;;;;;;;18.30;12.10;;;;;;;;;;5071135;28;20305;-77
2020/12/16 05:26:00;;;;;;;19.33;12.15;;;;;;;;;;5070880;28;20186;-76
2020/12/16 05:28:28;;;;;;;16.02;11.63;;;;;;;;;;5052080;28;20288;-77
2020/12/16 05:30:55;;;;;;;16.27;11.20;;;;;;;;;;5065935;28;20280;-77
2020/12/16 05:33:22;;;;;;;18.20;11.40;;;;;;;;;;5046519;28;20217;-76
2020/12/16 05:35:52;;;;;;;17.98;11.57;;;;;;;;;;5039836;28;20187;-77
2020/12/16 05:38:19;;;;;;;16.90;12.18;;;;;;;;;;5068101;28;20186;-76
2020/12/16 05:40:46;;;;;;;20.23;11.95;;;;;;;;;;5069674;28;20271;-77
2020/12/16 05:43:21;;;;;;;16.75;12.45;;;;;;;;;;5070241;28;21127;-77
2020/12/16 05:45:48;;;;;;;18.92;12.80;;;;;;;;;;5070420;28;20227;-78
2020/12/16 05:48:15;;;;;;;17.30;12.40;;;;;;;;;;5071214;28;20205;-77
2020/12/16 05:50:47;;;;;;;18.40;11.60;;;;;;;;;;5070147;28;20192;-77
2020/12/16 05:53:15;;;;;;;17.05;11.30;;;;;;;;;;5047735;28;20206;-77
2020/12/16 05:55:42;;;;;;;17.75;11.25;;;;;;;;;;5066232;28;20314;-77
2020/12/16 05:58:10;;;;;;;19.83;11.80;;;;;;;;;;5065955;28;20245;-77
2020/12/16 06:00:45;;;;;;;18.13;12.30;;;;;;;;;;5046056;28;20215;-77
2020/12/16 06:03:16;;;;;;;19.70;12.23;;;;;;;;;;5029860;28;20266;-78
2020/12/16 06:05:45;;;;;;;14.65;11.20;;;;;;;;;;5065691;28;20214;-77
2020/12/16 06:08:12;;;;;;;19.13;12.27;;;;;;;;;;5064264;28;20198;-76
2020/12/16 06:10:43;;;;;;;21.02;11.80;;;;;;;;;;5066934;28;20554;-77
2020/12/16 06:13:12;;;;;;;17.00;11.60;;;;;;;;;;5068436;28;20221;-77
2020/12/16 06:15:47;;;;;;;17.80;11.00;;;;;;;;;;5068539;28;20197;-77
2020/12/16 06:18:16;;;;;;;19.67;12.93;;;;;;;;;;5068788;28;20528;-76
2020/12/16 06:20:43;;;;;;;18.25;12.00;;;;;;;;;;5049380;28;20585;-77
2020/12/16 06:23:15;;;;;;;21.13;12.48;;;;;;;;;;5067809;28;20293;-77
2020/12/16 06:25:45;;;;;;;22.27;12.18;;;;;;;;;;5069668;28;20634;-77
2020/12/16 06:28:14;;;;;;;18.52;12.25;;;;;;;;;;5069671;28;20200;-77
2020/12/16 06:30:47;;;;;;;18.38;13.02;;;;;;;;;;5065363;28;20214;-77
2020/12/16 06:33:18;;;;;;;17.40;12.27;;;;;;;;;;5066748;28;20314;-77
2020/12/16 06:35:46;;;;;;;20.65;12.10;;;;;;;;;;5068372;28;20184;-77
2020/12/16 06:38:17;;;;;;;22.83;12.52;;;;;;;;;;5068473;28;20197;-77
2020/12/16 06:40:45;;;;;;;20.98;13.32;;;;;;;;;;5050669;28;20243;-79
2020/12/16 06:43:27;;;;;;;19.27;13.13;;;;;;;;;;5069912;28;20867;-77
2020/12/16 06:45:54;;;;;;;17.67;12.70;;;;;;;;;;5054906;28;20205;-76
2020/12/16 06:48:35;;;;;;;21.67;12.88;;;;;;;;;;5070545;28;20225;-78
2020/12/16 06:51:17;;;;;;;20.05;12.45;;;;;;;;;;5057654;28;20200;-77
2020/12/16 06:53:44;;;;;;;22.85;13.68;;;;;;;;;;5052620;28;20311;-76
2020/12/16 06:56:12;;;;;;;23.08;12.30;;;;;;;;;;5070196;28;20193;-75
2020/12/16 06:58:39;;;;;;;18.75;11.30;;;;;;;;;;5071982;28;20284;-76
2020/12/16 07:01:11;;;;;;;16.67;11.65;;;;;;;;;;5053944;28;20218;-76
2020/12/16 07:03:38;;;;;;;16.73;10.40;;;;;;;;;;5054509;28;20234;-76
2020/12/16 07:06:05;;;;;;;17.38;11.65;;;;;;;;;;5072696;28;20281;-76
2020/12/16 07:08:32;;;;;;;18.13;12.50;;;;;;;;;;5074136;28;20200;-77
2020/12/16 07:10:59;;;;;;;16.42;11.77;;;;;;;;;;5072894;28;20240;-77
2020/12/16 07:13:29;;;;;;;15.18;10.80;;;;;;;;;;5073020;28;20246;-76
2020/12/16 07:15:57;;;;;;;16.45;11.68;;;;;;;;;;5050230;28;20674;-77
2020/12/16 07:18:26;;;;;;;25.85;12.68;;;;;;;;;;5069285;28;20196;-76
2020/12/16 07:20:59;;;;;;;18.75;12.82;;;;;;;;;;5070831;28;20258;-76
2020/12/16 07:23:29;;;;;;;18.17;12.48;;;;;;;;;;5070856;28;20624;-77
2020/12/16 07:26:02;;;;;;;26.52;13.57;;;;;;;;;;5053876;28;20550;-77
2020/12/16 07:28:32;;;;;;;20.25;13.73;;;;;;;;;;5071711;28;20194;-77
2020/12/16 07:31:04;;;;;;;22.42;14.60;;;;;;;;;;5064485;28;20201;-77
2020/12/16 07:33:31;;;;;;;23.35;15.07;;;;;;;;;;5068933;28;20206;-79
2020/12/16 07:47:23;;;;;;;18.67;12.82;;;;;;;;;;5041690;28;20220;-88
2020/12/16 08:01:22;;;;;;;21.90;14.10;;;;;;;;;;5057768;28;20214;-78
2020/12/16 08:06:33;;;;;;;21.40;13.43;;;;;;;;;;5065110;28;20195;-77
2020/12/16 08:09:03;;;;;;;20.27;13.25;;;;;;;;;;5068072;28;20196;-77
2020/12/16 08:11:35;;;;;;;21.90;12.55;;;;;;;;;;5072644;28;20221;-78
2020/12/16 08:14:12;;;;;;;26.40;14.35;;;;;;;;;;5069867;28;20305;-77
2020/12/16 08:22:10;;;;;;;22.85;12.52;;;;;;;;;;5067362;28;20643;-78
2020/12/16 08:24:39;;;;;;;20.20;13.00;;;;;;;;;;5069799;28;20209;-78
2020/12/16 08:27:07;;;;;;;23.65;13.95;;;;;;;;;;5070832;28;20668;-77
2020/12/16 08:29:37;;;;;;;22.70;13.02;;;;;;;;;;5071960;28;20672;-77
2020/12/16 08:32:06;;;;;;;20.95;13.73;;;;;;;;;;5068528;28;20620;-77
2020/12/16 08:34:33;;;;;;;21.55;13.13;;;;;;;;;;5066757;28;20206;-77
2020/12/16 08:37:02;;;;;;;21.27;13.23;;;;;;;;;;5068563;28;20190;-77
2020/12/16 08:39:30;;;;;;;22.05;13.88;;;;;;;;;;5069617;28;20662;-78
2020/12/16 09:01:07;;;;;;;20.33;12.85;;;;;;;;;;5043337;28;20485;-76
2020/12/16 09:03:42;;;;;;;24.02;14.13;;;;;;;;;;5038906;28;20729;-76
2020/12/16 09:06:08;;;;;;;23.08;13.05;;;;;;;;;;5043336;28;20213;-76
2020/12/16 09:08:35;;;;;;;21.02;12.55;;;;;;;;;;5046474;28;20777;-77
2020/12/16 09:11:02;;;;;;;19.77;12.63;;;;;;;;;;5045923;28;20270;-76
2020/12/16 09:13:31;;;;;;;20.92;12.55;;;;;;;;;;5046012;28;20222;-76
2020/12/16 09:15:58;;;;;;;19.58;12.85;;;;;;;;;;5047504;28;20234;-76
2020/12/16 09:18:27;;;;;;;22.85;13.35;;;;;;;;;;5049365;28;20227;-77
2020/12/16 09:20:55;;;;;;;21.10;12.27;;;;;;;;;;5049275;28;20262;-77
2020/12/16 09:23:24;;;;;;;19.67;12.87;;;;;;;;;;5049217;28;20231;-77
2020/12/16 09:25:55;;;;;;;18.97;11.37;;;;;;;;;;5047392;28;20488;-76
2020/12/16 09:28:22;;;;;;;18.25;11.85;;;;;;;;;;5042885;28;20582;-77
2020/12/16 09:30:49;;;;;;;17.35;12.48;;;;;;;;;;5045398;28;20292;-76
2020/12/16 09:33:16;;;;;;;19.30;12.03;;;;;;;;;;5068644;28;20314;-77
2020/12/16 09:35:44;;;;;;;21.85;13.48;;;;;;;;;;5069549;28;20448;-77
2020/12/16 09:38:15;;;;;;;18.23;11.75;;;;;;;;;;5068038;28;20219;-77
2020/12/16 09:40:42;;;;;;;21.17;13.02;;;;;;;;;;5069776;28;20314;-77
2020/12/16 09:43:10;;;;;;;19.42;11.73;;;;;;;;;;5071314;28;20216;-77
2020/12/16 09:45:37;;;;;;;23.37;13.67;;;;;;;;;;5071226;28;20357;-76
2020/12/16 09:48:04;;;;;;;23.77;13.80;;;;;;;;;;5070462;28;21196;-76
2020/12/16 09:50:32;;;;;;;18.00;12.80;;;;;;;;;;5066080;28;20526;-77
2020/12/16 09:53:00;;;;;;;22.10;13.87;;;;;;;;;;5066905;28;20465;-77
2020/12/16 09:55:28;;;;;;;18.08;12.63;;;;;;;;;;5067637;28;20908;-77
2020/12/16 09:57:59;;;;;;;20.17;11.67;;;;;;;;;;5068429;28;20181;-78
2020/12/16 10:00:26;;;;;;;19.37;13.17;;;;;;;;;;5052894;28;20488;-76
2020/12/16 10:02:57;;;;;;;17.10;12.77;;;;;;;;;;5061718;28;20562;-77
2020/12/16 10:05:24;;;;;;;17.40;12.57;;;;;;;;;;5046552;28;20444;-77
2020/12/16 10:07:51;;;;;;;19.00;13.13;;;;;;;;;;5064230;28;20451;-77
2020/12/16 10:10:18;;;;;;;18.60;12.30;;;;;;;;;;5068576;28;20530;-78
2020/12/16 10:12:46;;;;;;;20.43;13.70;;;;;;;;;;5064752;28;20443;-77
2020/12/16 10:15:13;;;;;;;17.17;13.00;;;;;;;;;;5065855;28;20474;-77
2020/12/16 10:17:40;;;;;;;21.50;13.33;;;;;;;;;;5068423;28;20906;-77
2020/12/16 10:20:07;;;;;;;18.40;13.20;;;;;;;;;;5068839;28;20534;-77
2020/12/16 10:22:34;;;;;;;19.40;13.20;;;;;;;;;;5067630;28;20444;-76
2020/12/16 10:25:01;;;;;;;18.40;12.80;;;;;;;;;;5072794;28;20546;-77
2020/12/16 10:27:29;;;;;;;17.57;13.87;;;;;;;;;;5074628;28;20447;-77
2020/12/16 10:29:57;;;;;;;22.10;12.80;;;;;;;;;;5074126;28;20442;-77
2020/12/16 10:32:25;;;;;;;17.97;13.73;;;;;;;;;;5069360;28;20523;-78
2020/12/16 10:34:53;;;;;;;20.00;13.17;;;;;;;;;;5070092;28;20439;-77
2020/12/16 10:37:20;;;;;;;18.33;12.10;;;;;;;;;;5072682;28;20439;-77
2020/12/16 10:39:47;;;;;;;17.90;12.90;;;;;;;;;;5071000;28;20440;-77
2020/12/16 10:42:14;;;;;;;16.23;12.73;;;;;;;;;;5073066;28;20512;-76
2020/12/16 10:44:41;;;;;;;20.83;13.97;;;;;;;;;;5072894;28;20463;-78
2020/12/16 10:47:09;;;;;;;18.03;13.53;;;;;;;;;;5074862;28;20525;-75
2020/12/16 10:49:36;;;;;;;18.30;14.47;;;;;;;;;;5074607;28;20940;-77
2020/12/16 10:52:05;;;;;;;17.07;13.50;;;;;;;;;;5072921;28;20455;-77
2020/12/16 10:54:32;;;;;;;17.80;13.33;;;;;;;;;;5068319;28;20459;-76
2020/12/16 10:57:00;;;;;;;18.10;13.03;;;;;;;;;;5070644;28;20485;-77
2020/12/16 10:59:29;;;;;;;17.10;12.97;;;;;;;;;;5054444;28;20552;-76
2020/12/16 11:01:57;;;;;;;17.47;13.40;;;;;;;;;;5072070;28;20483;-77
2020/12/16 11:04:24;;;;;;;18.77;12.67;;;;;;;;;;5072630;28;20492;-76
2020/12/16 11:06:51;;;;;;;16.97;13.03;;;;;;;;;;5073518;28;20554;-76
2020/12/16 11:09:19;;;;;;;17.80;13.50;;;;;;;;;;5074205;28;20440;-76
2020/12/16 11:11:47;;;;;;;16.63;12.47;;;;;;;;;;5074221;28;20444;-77
2020/12/16 11:14:14;;;;;;;15.53;12.13;;;;;;;;;;5073468;28;20462;-77
2020/12/16 11:16:41;;;;;;;16.40;12.17;;;;;;;;;;5068694;28;20466;-77
2020/12/16 11:19:09;;;;;;;16.30;12.47;;;;;;;;;;5051767;28;20450;-76
2020/12/16 11:21:38;;;;;;;18.30;12.70;;;;;;;;;;5071614;28;20552;-76
2020/12/16 11:24:05;;;;;;;15.73;11.37;;;;;;;;;;5054377;28;20474;-77
2020/12/16 11:26:32;;;;;;;20.93;11.90;;;;;;;;;;5054047;28;20435;-77
2020/12/16 11:28:59;;;;;;;16.00;11.50;;;;;;;;;;5056299;28;21067;-78
2020/12/16 11:31:25;;;;;;;16.17;12.23;;;;;;;;;;5067554;28;20832;-78
2020/12/16 11:33:52;;;;;;;17.67;12.37;;;;;;;;;;5059180;28;20567;-77
2020/12/16 11:36:20;;;;;;;15.00;11.97;;;;;;;;;;5055458;28;20519;-78
2020/12/16 11:38:47;;;;;;;16.10;12.00;;;;;;;;;;5071260;28;20537;-77
2020/12/16 11:41:13;;;;;;;17.03;11.83;;;;;;;;;;5071006;28;20507;-78
2020/12/16 11:43:40;;;;;;;11.97;10.40;;;;;;;;;;5072051;28;20513;-77
2020/12/16 11:46:07;;;;;;;15.37;11.40;;;;;;;;;;5070819;28;20527;-77
2020/12/16 11:48:34;;;;;;;16.60;11.07;;;;;;;;;;5070869;28;20539;-76
2020/12/16 11:51:01;;;;;;;15.40;11.87;;;;;;;;;;5071059;28;20440;-77
2020/12/16 11:53:29;;;;;;;17.47;11.50;;;;;;;;;;5065882;28;20494;-76
2020/12/16 11:55:55;;;;;;;14.97;11.40;;;;;;;;;;5066880;28;20436;-76
2020/12/16 11:58:23;;;;;;;16.83;12.23;;;;;;;;;;5067030;28;20466;-75
2020/12/16 12:00:49;;;;;;;14.40;10.77;;;;;;;;;;5066267;28;20487;-76
2020/12/16 12:03:18;;;;;;;16.20;11.57;;;;;;;;;;5067824;28;20521;-76
2020/12/16 12:05:45;;;;;;;15.13;11.13;;;;;;;;;;5066564;28;20539;-76
2020/12/16 12:08:12;;;;;;;15.73;11.70;;;;;;;;;;5064124;28;20633;-77
2020/12/16 12:10:39;;;;;;;15.00;11.60;;;;;;;;;;5066850;28;20520;-77
2020/12/16 12:13:06;;;;;;;14.07;10.37;;;;;;;;;;5067624;28;20571;-77
2020/12/16 12:15:33;;;;;;;15.53;11.73;;;;;;;;;;5067506;28;20440;-76
2020/12/16 12:18:00;;;;;;;17.83;12.17;;;;;;;;;;5046643;28;20441;-77
2020/12/16 12:20:27;;;;;;;15.50;11.70;;;;;;;;;;5049680;28;20576;-77
2020/12/16 12:22:54;;;;;;;16.07;10.97;;;;;;;;;;5048465;28;20511;-76
2020/12/16 12:25:21;;;;;;;14.17;11.20;;;;;;;;;;5048939;28;20507;-76
2020/12/16 12:27:48;;;;;;;15.47;11.37;;;;;;;;;;5052104;28;20433;-76
2020/12/16 12:30:15;;;;;;;15.93;12.67;;;;;;;;;;5063664;28;20485;-77
2020/12/16 12:32:42;;;;;;;12.20;10.90;;;;;;;;;;5066144;28;20444;-77
2020/12/16 12:35:09;;;;;;;12.80;10.50;;;;;;;;;;5067345;28;20479;-76
2020/12/16 12:37:36;;;;;;;18.27;10.83;;;;;;;;;;5067539;28;20853;-77
2020/12/16 12:40:03;;;;;;;13.33;10.37;;;;;;;;;;5067558;28;20476;-77
2020/12/16 12:42:29;;;;;;;12.77;10.83;;;;;;;;;;5068724;28;20444;-76
2020/12/16 12:44:57;;;;;;;12.90;10.90;;;;;;;;;;5068930;28;20521;-77
2020/12/16 12:47:24;;;;;;;12.80;9.80;;;;;;;;;;5068327;28;21099;-77
2020/12/16 12:49:51;;;;;;;14.03;10.40;;;;;;;;;;5068657;28;20849;-78
2020/12/16 12:52:18;;;;;;;13.00;10.00;;;;;;;;;;5063547;28;20797;-77
2020/12/16 12:54:44;;;;;;;12.20;10.37;;;;;;;;;;5064504;28;20530;-77
2020/12/16 12:57:11;;;;;;;14.50;10.23;;;;;;;;;;5068030;28;20428;-77
2020/12/16 12:59:38;;;;;;;13.20;11.07;;;;;;;;;;5067780;28;20509;-80
2020/12/16 13:02:06;;;;;;;12.13;10.00;;;;;;;;;;5069263;28;20483;-79
2020/12/16 13:04:33;;;;;;;12.33;9.63;;;;;;;;;;5069831;28;20547;-79
2020/12/16 13:06:59;;;;;;;18.63;11.17;;;;;;;;;;5071273;28;20434;-77
2020/12/16 13:09:26;;;;;;;12.80;10.10;;;;;;;;;;5071681;28;20446;-78
2020/12/16 13:11:53;;;;;;;16.07;11.70;;;;;;;;;;5071515;28;20751;-77
2020/12/16 13:14:20;;;;;;;12.00;9.80;;;;;;;;;;5067197;28;20460;-78
2020/12/16 13:16:47;;;;;;;11.17;9.97;;;;;;;;;;5066610;28;20940;-78
2020/12/16 13:19:16;;;;;;;13.77;10.23;;;;;;;;;;5069030;28;20440;-77
2020/12/16 13:21:43;;;;;;;12.80;11.10;;;;;;;;;;5068080;28;20501;-77
2020/12/16 13:24:10;;;;;;;16.03;10.87;;;;;;;;;;5069479;28;20480;-76
2020/12/16 13:26:42;;;;;;;11.90;9.80;;;;;;;;;;5070228;28;21015;-77
2020/12/16 13:29:09;;;;;;;12.77;11.13;;;;;;;;;;5070454;28;20448;-78
2020/12/16 13:31:36;;;;;;;12.70;9.80;;;;;;;;;;5067496;28;20784;-78
2020/12/16 13:34:03;;;;;;;13.77;10.50;;;;;;;;;;5065644;28;20551;-78
2020/12/16 13:36:30;;;;;;;12.27;10.30;;;;;;;;;;5069045;28;20983;-78
2020/12/16 13:38:57;;;;;;;12.40;9.57;;;;;;;;;;5066557;28;20531;-77
2020/12/16 13:41:25;;;;;;;13.67;9.90;;;;;;;;;;5068014;28;20563;-76
2020/12/16 13:43:53;;;;;;;12.43;9.83;;;;;;;;;;5066433;28;20559;-77
2020/12/16 13:46:20;;;;;;;11.80;9.10;;;;;;;;;;5065126;28;20789;-77
2020/12/16 13:48:47;;;;;;;15.70;10.17;;;;;;;;;;5067710;28;21022;-77
2020/12/16 13:51:14;;;;;;;17.87;9.93;;;;;;;;;;5068586;28;20535;-77
2020/12/16 13:53:42;;;;;;;12.23;9.33;;;;;;;;;;5067802;28;20515;-77
2020/12/16 13:56:10;;;;;;;14.03;9.27;;;;;;;;;;5068934;28;20515;-77
2020/12/16 13:58:37;;;;;;;11.20;9.13;;;;;;;;;;5068479;28;21004;-77
2020/12/16 14:01:04;;;;;;;10.57;9.17;;;;;;;;;;5069098;28;20488;-77
2020/12/16 14:03:31;;;;;;;11.67;9.10;;;;;;;;;;5068921;28;20930;-76
2020/12/16 14:05:57;;;;;;;9.80;8.67;;;;;;;;;;5068898;28;20449;-78
2020/12/16 14:08:24;;;;;;;10.83;8.50;;;;;;;;;;5063311;28;20465;-77
2020/12/16 14:10:52;;;;;;;10.77;9.10;;;;;;;;;;5064870;28;20444;-81
2020/12/16 14:13:19;;;;;;;9.93;8.07;;;;;;;;;;5067611;28;20980;-77
2020/12/16 14:15:46;;;;;;;10.40;8.80;;;;;;;;;;5068850;28;20877;-77
2020/12/16 14:18:13;;;;;;;9.50;7.90;;;;;;;;;;5068899;28;20447;-76
2020/12/16 14:20:40;;;;;;;9.80;8.07;;;;;;;;;;5069650;28;20579;-77
2020/12/16 14:23:07;;;;;;;12.03;8.87;;;;;;;;;;5065473;28;20452;-77
2020/12/16 14:25:34;;;;;;;10.90;8.60;;;;;;;;;;5066823;28;20624;-78
2020/12/16 14:28:02;;;;;;;11.03;8.53;;;;;;;;;;5068103;28;20460;-77
2020/12/16 14:30:28;;;;;;;12.27;7.67;;;;;;;;;;5068485;28;20501;-77
2020/12/16 14:32:56;;;;;;;12.60;9.30;;;;;;;;;;5069365;28;20467;-77
2020/12/16 14:35:23;;;;;;;15.43;8.97;;;;;;;;;;5070097;28;20523;-78
2020/12/16 14:37:50;;;;;;;11.30;8.53;;;;;;;;;;5070932;28;20444;-77
2020/12/16 14:40:17;;;;;;;14.70;9.70;;;;;;;;;;5070632;28;20483;-78
2020/12/16 14:42:45;;;;;;;11.57;9.47;;;;;;;;;;5065156;28;20999;-77
2020/12/16 14:45:12;;;;;;;14.10;8.83;;;;;;;;;;5066348;28;20951;-77
2020/12/16 14:47:39;;;;;;;10.20;7.80;;;;;;;;;;5068687;28;20510;-77
2020/12/16 14:50:07;;;;;;;10.37;8.07;;;;;;;;;;5068401;28;20472;-75
2020/12/16 14:52:34;;;;;;;9.83;7.90;;;;;;;;;;5069019;28;20523;-77
2020/12/16 14:55:01;;;;;;;8.93;7.97;;;;;;;;;;5059023;28;20563;-77
2020/12/16 14:57:28;;;;;;;13.10;8.40;;;;;;;;;;5050753;28;20448;-77
2020/12/16 14:59:55;;;;;;;9.10;6.50;;;;;;;;;;5050745;28;20477;-76
2020/12/16 15:02:23;;;;;;;10.43;7.60;;;;;;;;;;5050729;28;20810;-76
2020/12/16 15:04:50;;;;;;;8.53;6.10;;;;;;;;;;5063852;28;20464;-76
2020/12/16 15:07:17;;;;;;;7.73;6.37;;;;;;;;;;5066253;28;20487;-77
2020/12/16 15:09:43;;;;;;;10.70;5.90;;;;;;;;;;5068523;28;20523;-76
2020/12/16 15:12:11;;;;;;;8.47;6.10;;;;;;;;;;5070702;28;20447;-77
2020/12/16 15:14:39;;;;;;;8.40;6.97;;;;;;;;;;5071935;28;20448;-76